Time;durP1;ratioP1;P1;durP2;ratioP2;P2;SDS_P1;SDS_P2;PMS_P1;PMS_P2;Temp;Humidity;BMP_temperature;BMP_pressure;BME280_temperature;BME280_humidity;BME280_pressure;Samples;Min_cycle;Max_cycle;Signal;HPM_P1;HPM_P2
2021/10/27 00:02:24;;;;;;;2.95;2.63;;;4.40;99.50;;;;;;4902940;29;20032;-67
2021/10/27 00:04:49;;;;;;;3.45;3.13;;;4.40;98.90;;;;;;4912035;29;20480;-67
2021/10/27 00:07:16;;;;;;;3.08;2.75;;;4.30;98.60;;;;;;4911559;29;20040;-67
2021/10/27 00:09:42;;;;;;;11.60;3.28;;;4.20;98.00;;;;;;4905454;29;20039;-67
2021/10/27 00:12:07;;;;;;;3.30;3.00;;;4.10;97.70;;;;;;4909526;29;20160;-67
2021/10/27 00:14:33;;;;;;;3.13;2.80;;;4.10;98.10;;;;;;4907908;29;21026;-67
2021/10/27 00:16:59;;;;;;;12.52;3.25;;;4.00;98.00;;;;;;4909931;29;20043;-67
2021/10/27 00:19:25;;;;;;;3.38;2.92;;;3.90;98.20;;;;;;4905225;29;20088;-67
2021/10/27 00:21:50;;;;;;;5.47;3.22;;;3.90;98.60;;;;;;4911013;29;20056;-67
2021/10/27 00:24:16;;;;;;;4.18;3.65;;;3.70;99.40;;;;;;4910040;29;20107;-67
2021/10/27 00:26:42;;;;;;;4.07;3.33;;;3.80;99.90;;;;;;4906857;29;20047;-67
2021/10/27 00:29:07;;;;;;;4.13;3.47;;;3.80;99.90;;;;;;4899915;29;20028;-67
2021/10/27 00:31:33;;;;;;;4.20;3.25;;;3.80;99.90;;;;;;4895605;29;20056;-67
2021/10/27 00:33:59;;;;;;;4.47;3.30;;;3.80;99.90;;;;;;4908677;29;20028;-67
2021/10/27 00:36:25;;;;;;;5.43;3.65;;;3.90;99.90;;;;;;4907716;29;20056;-67
2021/10/27 00:38:51;;;;;;;24.17;4.22;;;3.90;99.90;;;;;;4906554;29;20545;-67
2021/10/27 00:41:17;;;;;;;4.35;3.30;;;3.80;99.90;;;;;;4901260;29;20038;-67
2021/10/27 00:43:43;;;;;;;5.60;3.03;;;3.90;99.90;;;;;;4906317;29;20075;-67
2021/10/27 00:46:20;;;;;;;14.55;4.57;;;3.90;99.90;;;;;;4921374;29;20039;-67
2021/10/27 00:48:46;;;;;;;28.27;6.43;;;3.90;99.70;;;;;;4907255;29;20032;-67
2021/10/27 00:51:12;;;;;;;6.55;3.80;;;3.90;99.90;;;;;;4925153;29;20151;-67
2021/10/27 00:53:39;;;;;;;6.32;3.63;;;3.90;99.90;;;;;;4906446;29;20462;-67
2021/10/27 00:56:05;;;;;;;5.70;3.65;;;3.90;99.90;;;;;;4902952;29;20120;-67
2021/10/27 00:58:31;;;;;;;4.65;3.42;;;3.90;99.90;;;;;;4908830;29;20115;-67
2021/10/27 01:00:57;;;;;;;6.07;4.53;;;3.80;99.70;;;;;;4917138;29;20077;-67
2021/10/27 01:03:22;;;;;;;3.83;3.40;;;3.90;99.40;;;;;;4902220;29;20036;-67
2021/10/27 01:05:48;;;;;;;4.15;3.35;;;3.90;99.20;;;;;;4913003;29;20039;-67
2021/10/27 01:08:13;;;;;;;5.05;3.25;;;3.90;98.90;;;;;;4909923;29;20036;-67
2021/10/27 01:10:40;;;;;;;4.93;3.35;;;3.90;98.30;;;;;;4901478;29;20031;-67
2021/10/27 01:13:06;;;;;;;4.30;3.75;;;3.90;98.20;;;;;;4899407;29;20024;-67
2021/10/27 01:15:38;;;;;;;3.67;3.30;;;3.90;98.30;;;;;;4910110;29;20500;-67
2021/10/27 01:18:04;;;;;;;6.43;3.20;;;3.90;98.10;;;;;;4906065;29;20485;-67
2021/10/27 01:20:29;;;;;;;3.03;2.72;;;3.80;98.20;;;;;;4910236;29;20028;-67
2021/10/27 01:22:55;;;;;;;3.78;3.08;;;3.70;98.60;;;;;;4907775;29;20091;-67
2021/10/27 01:25:21;;;;;;;4.50;3.25;;;3.60;98.90;;;;;;4915222;29;20028;-67
2021/10/27 01:27:47;;;;;;;5.82;3.22;;;3.70;99.10;;;;;;4907932;29;20039;-67
2021/10/27 01:30:19;;;;;;;4.28;3.60;;;3.70;98.80;;;;;;4907108;29;20028;-67
2021/10/27 01:32:46;;;;;;;4.43;3.00;;;3.60;98.80;;;;;;4904549;29;20032;-67
2021/10/27 01:35:12;;;;;;;3.70;3.10;;;3.60;99.50;;;;;;4909930;29;20036;-67
2021/10/27 01:37:39;;;;;;;6.68;3.08;;;3.60;99.70;;;;;;4903833;29;20032;-69
2021/10/27 01:40:07;;;;;;;3.38;3.08;;;3.70;99.40;;;;;;4902697;29;21789;-67
2021/10/27 01:42:32;;;;;;;4.00;3.25;;;3.70;99.40;;;;;;4898836;29;20032;-67
2021/10/27 01:44:58;;;;;;;3.97;2.97;;;3.70;99.40;;;;;;4908726;29;20660;-67
2021/10/27 01:47:24;;;;;;;3.55;2.95;;;3.70;99.70;;;;;;4895615;29;20648;-67
2021/10/27 01:49:49;;;;;;;4.07;2.78;;;3.70;99.90;;;;;;4898303;29;20569;-67
2021/10/27 01:52:17;;;;;;;3.92;3.10;;;3.70;99.90;;;;;;4893227;29;20036;-67
2021/10/27 01:54:42;;;;;;;6.55;2.60;;;3.80;99.80;;;;;;4898693;29;20042;-67
2021/10/27 01:57:08;;;;;;;4.53;3.08;;;3.80;99.60;;;;;;4898803;29;20493;-67
2021/10/27 01:59:35;;;;;;;3.78;3.28;;;3.70;99.00;;;;;;4914258;28;20036;-67
2021/10/27 02:02:00;;;;;;;4.65;3.33;;;3.80;98.90;;;;;;4893464;29;20039;-67
2021/10/27 02:04:26;;;;;;;4.32;2.90;;;3.70;99.50;;;;;;4904345;29;20028;-66
2021/10/27 02:06:52;;;;;;;6.50;2.80;;;3.80;99.70;;;;;;4910851;29;20076;-66
2021/10/27 02:09:18;;;;;;;12.68;3.15;;;3.80;99.80;;;;;;4909138;29;20036;-67
2021/10/27 02:11:43;;;;;;;27.20;4.47;;;3.80;99.90;;;;;;4910329;29;20050;-67
2021/10/27 02:14:09;;;;;;;12.55;3.75;;;3.80;99.90;;;;;;4917291;29;20085;-67
2021/10/27 02:16:35;;;;;;;7.30;4.07;;;3.70;99.90;;;;;;4918138;29;20028;-67
2021/10/27 02:19:01;;;;;;;10.20;4.20;;;3.70;99.90;;;;;;4919725;29;20033;-67
2021/10/27 02:21:27;;;;;;;12.68;3.75;;;3.70;99.90;;;;;;4914372;29;20059;-67
2021/10/27 02:23:53;;;;;;;35.47;5.13;;;3.80;99.90;;;;;;4912265;29;20097;-67
2021/10/27 02:26:20;;;;;;;4.38;3.20;;;3.80;99.90;;;;;;4908602;29;20095;-68
2021/10/27 02:28:46;;;;;;;18.30;4.25;;;3.80;99.90;;;;;;4899703;29;20032;-67
2021/10/27 02:31:11;;;;;;;5.88;3.53;;;3.80;99.90;;;;;;4906588;29;20064;-67
2021/10/27 02:33:37;;;;;;;5.93;3.58;;;3.80;99.90;;;;;;4904528;29;20449;-68
2021/10/27 02:36:03;;;;;;;4.93;3.88;;;3.70;99.90;;;;;;4912956;29;20107;-67
2021/10/27 02:38:28;;;;;;;6.32;4.47;;;3.70;99.90;;;;;;4913665;29;20034;-67
2021/10/27 02:40:54;;;;;;;5.28;3.83;;;3.70;99.90;;;;;;4917336;29;20405;-67
2021/10/27 02:43:20;;;;;;;5.45;3.65;;;3.60;99.90;;;;;;4916030;29;20441;-67
2021/10/27 02:45:46;;;;;;;12.82;4.38;;;3.60;99.90;;;;;;4918747;29;20481;-67
2021/10/27 02:48:13;;;;;;;4.82;4.10;;;3.60;99.90;;;;;;4915301;29;20574;-67
2021/10/27 02:50:40;;;;;;;7.15;5.22;;;3.60;99.90;;;;;;4924359;29;20115;-67
2021/10/27 02:53:06;;;;;;;4.97;4.03;;;3.60;99.90;;;;;;4910007;29;20056;-67
2021/10/27 02:55:32;;;;;;;6.35;4.15;;;3.70;99.90;;;;;;4908633;29;20053;-66
2021/10/27 02:57:59;;;;;;;4.93;4.03;;;3.80;99.90;;;;;;4902844;29;20563;-67
2021/10/27 03:00:26;;;;;;;10.82;4.85;;;3.80;99.90;;;;;;4909450;29;20405;-67
2021/10/27 03:02:52;;;;;;;18.80;5.18;;;3.80;99.90;;;;;;4909941;29;20466;-67
2021/10/27 03:05:18;;;;;;;13.15;4.70;;;3.80;99.90;;;;;;4907430;29;20024;-67
2021/10/27 03:07:44;;;;;;;6.50;4.18;;;3.80;99.90;;;;;;4909766;29;20032;-66
2021/10/27 03:10:10;;;;;;;6.70;4.28;;;3.70;99.90;;;;;;4916646;29;20035;-66
2021/10/27 03:12:35;;;;;;;7.72;4.10;;;3.80;99.90;;;;;;4910581;29;20153;-66
2021/10/27 03:15:01;;;;;;;18.63;4.75;;;3.80;99.90;;;;;;4902273;29;20060;-66
2021/10/27 03:17:27;;;;;;;14.07;4.18;;;3.80;99.90;;;;;;4906659;29;20035;-66
2021/10/27 03:19:53;;;;;;;9.90;4.15;;;3.80;99.90;;;;;;4912517;29;20035;-66
2021/10/27 03:22:19;;;;;;;4.95;4.15;;;3.80;99.90;;;;;;4908447;29;20037;-67
2021/10/27 03:24:45;;;;;;;5.63;4.30;;;3.80;99.90;;;;;;4907827;29;20028;-66
2021/10/27 03:27:11;;;;;;;6.90;4.80;;;3.70;99.90;;;;;;4910232;29;20079;-66
2021/10/27 03:29:36;;;;;;;8.32;4.28;;;3.70;99.90;;;;;;4896678;29;20589;-66
2021/10/27 03:32:03;;;;;;;7.95;4.38;;;3.80;99.90;;;;;;4909418;29;20040;-66
2021/10/27 03:34:28;;;;;;;7.93;4.70;;;3.80;99.90;;;;;;4910476;29;20035;-66
2021/10/27 03:36:54;;;;;;;7.20;4.43;;;3.70;99.90;;;;;;4912922;29;20036;-66
2021/10/27 03:39:20;;;;;;;6.38;4.38;;;3.80;99.90;;;;;;4908166;29;20028;-66
2021/10/27 03:41:46;;;;;;;10.25;4.43;;;3.80;99.90;;;;;;4907352;29;20029;-66
2021/10/27 03:44:13;;;;;;;7.47;5.00;;;3.80;99.90;;;;;;4920349;29;20406;-66
2021/10/27 03:46:39;;;;;;;6.18;4.50;;;3.80;99.90;;;;;;4904186;29;20028;-66
2021/10/27 03:49:04;;;;;;;5.80;4.50;;;3.80;99.90;;;;;;4910355;29;20029;-66
2021/10/27 03:51:30;;;;;;;7.35;4.32;;;3.80;99.90;;;;;;4919440;29;20517;-67
2021/10/27 03:53:56;;;;;;;15.13;7.30;;;3.90;99.90;;;;;;4900445;29;20035;-66
2021/10/27 03:56:22;;;;;;;8.15;4.20;;;3.90;99.90;;;;;;4908647;29;20048;-67
2021/10/27 03:58:47;;;;;;;6.03;4.28;;;3.80;99.90;;;;;;4902165;29;20406;-66
2021/10/27 04:01:13;;;;;;;9.00;4.55;;;3.80;99.90;;;;;;4911081;29;20150;-67
2021/10/27 04:03:39;;;;;;;5.90;3.40;;;3.80;99.90;;;;;;4901101;29;20052;-66
2021/10/27 04:06:04;;;;;;;6.60;4.00;;;3.90;99.90;;;;;;4911630;29;20028;-66
2021/10/27 04:08:30;;;;;;;9.43;4.25;;;3.90;99.90;;;;;;4910738;29;20504;-66
2021/10/27 04:10:56;;;;;;;8.75;4.47;;;3.90;99.90;;;;;;4910676;29;20024;-66
2021/10/27 04:13:23;;;;;;;27.80;5.88;;;3.90;99.90;;;;;;4911394;29;20088;-66
2021/10/27 04:15:49;;;;;;;7.05;4.38;;;3.90;99.90;;;;;;4904487;29;20028;-67
2021/10/27 04:18:15;;;;;;;5.82;4.03;;;3.90;99.90;;;;;;4903632;29;20035;-67
2021/10/27 04:20:41;;;;;;;8.50;4.35;;;3.90;99.90;;;;;;4906334;29;20034;-66
2021/10/27 04:23:07;;;;;;;9.07;4.50;;;4.00;99.90;;;;;;4919760;29;20458;-66
2021/10/27 04:25:35;;;;;;;12.40;5.07;;;4.00;99.90;;;;;;4912383;29;20024;-67
2021/10/27 04:28:01;;;;;;;27.85;4.90;;;4.00;99.90;;;;;;4901339;29;20494;-67
2021/10/27 04:30:27;;;;;;;21.85;5.43;;;4.00;99.90;;;;;;4901904;29;20044;-67
2021/10/27 04:32:52;;;;;;;30.48;6.25;;;4.00;99.90;;;;;;4906949;29;20028;-67
2021/10/27 04:35:19;;;;;;;17.45;5.93;;;4.00;99.90;;;;;;4904815;29;20036;-67
2021/10/27 04:37:45;;;;;;;49.28;7.55;;;4.00;99.90;;;;;;4908925;29;20050;-67
2021/10/27 04:40:16;;;;;;;28.73;6.18;;;4.00;99.90;;;;;;4910984;29;20032;-67
2021/10/27 04:42:42;;;;;;;11.35;6.13;;;4.00;99.90;;;;;;4912440;29;20035;-67
2021/10/27 04:45:09;;;;;;;28.45;5.55;;;4.00;99.90;;;;;;4908133;29;20029;-67
2021/10/27 04:47:35;;;;;;;25.30;6.57;;;4.00;99.90;;;;;;4907322;29;20434;-66
2021/10/27 04:50:02;;;;;;;33.75;7.25;;;4.10;99.90;;;;;;4909698;29;20039;-67
2021/10/27 04:52:27;;;;;;;21.58;6.25;;;4.00;99.90;;;;;;4911427;29;20036;-67
2021/10/27 04:54:53;;;;;;;9.48;6.43;;;4.10;99.90;;;;;;4906340;29;20038;-67
2021/10/27 04:57:19;;;;;;;15.10;4.95;;;4.10;99.90;;;;;;4906876;29;20063;-67
2021/10/27 04:59:45;;;;;;;69.35;9.88;;;4.10;99.90;;;;;;4896877;29;20027;-67
2021/10/27 05:02:15;;;;;;;43.97;8.82;;;4.10;99.90;;;;;;4922635;29;20044;-67
2021/10/27 05:04:41;;;;;;;38.50;7.78;;;4.10;99.90;;;;;;4895305;29;20028;-67
2021/10/27 05:07:10;;;;;;;30.13;7.32;;;4.10;99.90;;;;;;4923202;29;20561;-67
2021/10/27 05:09:35;;;;;;;11.95;5.82;;;4.20;99.90;;;;;;4897515;29;20039;-67
2021/10/27 05:12:04;;;;;;;42.45;7.75;;;4.20;99.90;;;;;;4907946;29;20040;-66
2021/10/27 05:14:34;;;;;;;84.47;9.32;;;4.20;99.90;;;;;;4898485;29;20053;-67
2021/10/27 05:17:00;;;;;;;32.85;6.63;;;4.20;99.90;;;;;;4904381;29;20118;-67
2021/10/27 05:19:25;;;;;;;11.90;5.60;;;4.20;99.90;;;;;;4910662;29;20182;-67
2021/10/27 05:21:51;;;;;;;17.63;7.22;;;4.20;99.90;;;;;;4901863;29;20047;-67
2021/10/27 05:24:16;;;;;;;16.60;5.90;;;4.30;99.90;;;;;;4900605;29;20040;-67
2021/10/27 05:26:42;;;;;;;36.28;7.63;;;4.20;99.90;;;;;;4892604;29;20036;-67
2021/10/27 05:29:08;;;;;;;45.47;7.22;;;4.30;99.90;;;;;;4897732;29;20036;-67
2021/10/27 05:31:34;;;;;;;14.57;6.28;;;4.30;99.90;;;;;;4895731;28;20383;-67
2021/10/27 05:34:00;;;;;;;15.70;5.97;;;4.30;99.90;;;;;;4893941;29;20032;-67
2021/10/27 05:36:26;;;;;;;13.02;5.10;;;4.30;99.90;;;;;;4900070;29;20083;-67
2021/10/27 05:38:52;;;;;;;46.38;8.18;;;4.30;99.90;;;;;;4898257;29;20386;-67
2021/10/27 05:41:18;;;;;;;14.90;7.00;;;4.30;99.90;;;;;;4911134;29;20035;-67
2021/10/27 05:43:45;;;;;;;22.55;5.90;;;4.30;99.90;;;;;;4891656;29;20028;-67
2021/10/27 05:46:12;;;;;;;57.03;7.97;;;4.30;99.90;;;;;;4891063;29;21524;-67
2021/10/27 05:48:42;;;;;;;12.90;5.43;;;4.30;99.90;;;;;;4894401;29;20028;-67
2021/10/27 05:56:20;;;;;;;65.15;6.80;;;4.30;99.90;;;;;;4901669;29;20071;-66
2021/10/27 05:58:46;;;;;;;76.72;8.65;;;4.30;99.90;;;;;;4896388;29;20044;-67
2021/10/27 06:01:13;;;;;;;40.63;7.05;;;4.30;99.90;;;;;;4918464;29;20055;-67
2021/10/27 06:03:38;;;;;;;22.70;6.63;;;4.30;99.90;;;;;;4901307;29;20035;-66
2021/10/27 06:06:04;;;;;;;26.98;8.55;;;4.30;99.90;;;;;;4901697;29;20111;-67
2021/10/27 06:08:30;;;;;;;12.98;5.25;;;4.30;99.90;;;;;;4899790;29;20032;-67
2021/10/27 06:10:58;;;;;;;8.68;6.38;;;4.30;99.90;;;;;;4899364;29;20040;-67
2021/10/27 06:13:32;;;;;;;58.40;8.65;;;4.40;99.90;;;;;;4897136;29;20028;-67
2021/10/27 06:15:58;;;;;;;53.40;33.47;;;4.30;99.90;;;;;;4892709;29;20908;-67
2021/10/27 06:18:23;;;;;;;38.90;7.82;;;4.40;99.90;;;;;;4892394;29;20043;-67
2021/10/27 06:20:50;;;;;;;38.20;8.98;;;4.50;99.90;;;;;;4895780;29;20824;-67
2021/10/27 06:23:15;;;;;;;21.15;7.70;;;4.50;99.90;;;;;;4902611;29;20048;-67
2021/10/27 06:25:41;;;;;;;17.48;6.57;;;4.50;99.90;;;;;;4903046;29;20024;-67
2021/10/27 06:28:11;;;;;;;28.85;7.45;;;4.60;99.90;;;;;;4902482;29;20093;-67
2021/10/27 06:30:47;;;;;;;25.80;8.10;;;4.60;99.90;;;;;;4923414;29;20036;-67
2021/10/27 06:36:03;;;;;;;28.00;8.25;;;4.60;99.90;;;;;;4916922;29;20031;-68
2021/10/27 06:46:46;;;;;;;38.25;7.13;;;4.60;99.90;;;;;;4916030;29;20042;-67
2021/10/27 06:49:12;;;;;;;22.02;7.05;;;4.70;99.90;;;;;;4911078;29;20111;-66
2021/10/27 06:51:37;;;;;;;18.23;7.00;;;4.70;99.90;;;;;;4921645;29;20056;-66
2021/10/27 06:54:04;;;;;;;42.20;8.40;;;4.70;99.90;;;;;;4916445;29;20050;-67
2021/10/27 06:56:30;;;;;;;27.73;7.43;;;4.70;99.90;;;;;;4914270;29;20493;-67
2021/10/27 07:01:32;;;;;;;30.73;8.65;;;4.80;99.90;;;;;;4915007;29;20047;-67
2021/10/27 07:17:25;;;;;;;85.45;12.65;;;5.00;99.90;;;;;;4885037;29;20107;-67
2021/10/27 07:19:51;;;;;;;57.72;11.85;;;5.10;99.90;;;;;;4893919;29;20505;-67
2021/10/27 07:22:17;;;;;;;87.78;11.23;;;5.00;99.90;;;;;;4902812;29;20111;-67
2021/10/27 07:24:43;;;;;;;88.90;13.27;;;5.10;99.90;;;;;;4909273;29;20047;-67
2021/10/27 07:27:10;;;;;;;53.03;8.55;;;5.20;99.90;;;;;;4908930;29;20454;-67
2021/10/27 07:29:37;;;;;;;90.38;16.00;;;5.20;99.90;;;;;;4915062;29;20445;-67
2021/10/27 07:32:05;;;;;;;36.30;9.18;;;5.20;99.90;;;;;;4913773;29;20507;-67
2021/10/27 07:34:34;;;;;;;43.85;9.55;;;5.30;99.90;;;;;;4906857;29;20028;-67
2021/10/27 07:42:39;;;;;;;58.72;12.63;;;5.30;99.90;;;;;;4908499;29;20036;-67
2021/10/27 07:45:05;;;;;;;;;;;5.40;99.90;;;;;;4930383;29;20028;-67
2021/10/27 07:47:31;;;;;;;63.25;10.55;;;5.30;99.90;;;;;;4911823;29;19915;-67
2021/10/27 07:49:56;;;;;;;45.53;10.55;;;5.30;99.90;;;;;;4910083;29;20035;-67
2021/10/27 07:52:22;;;;;;;19.75;8.18;;;5.40;99.90;;;;;;4911284;29;21254;-67
2021/10/27 07:54:48;;;;;;;35.75;10.43;;;5.40;99.90;;;;;;4909337;29;20705;-67
2021/10/27 07:57:14;;;;;;;31.05;8.90;;;5.50;99.90;;;;;;4901039;29;20032;-67
2021/10/27 07:59:40;;;;;;;60.20;11.90;;;5.60;99.90;;;;;;4898519;29;20048;-67
2021/10/27 08:02:06;;;;;;;93.68;12.57;;;5.60;99.90;;;;;;4899908;28;20486;-66
2021/10/27 08:04:34;;;;;;;92.97;12.73;;;5.50;99.90;;;;;;4901890;29;20029;-66
2021/10/27 08:07:00;;;;;;;32.30;9.93;;;5.60;99.90;;;;;;4900837;29;20445;-67
2021/10/27 08:09:26;;;;;;;47.45;10.90;;;5.60;99.90;;;;;;4900118;29;20063;-67
2021/10/27 08:11:51;;;;;;;71.80;12.45;;;5.70;99.90;;;;;;4914278;29;20509;-67
2021/10/27 08:14:17;;;;;;;53.45;12.00;;;5.70;99.90;;;;;;4913634;29;20051;-67
2021/10/27 08:16:45;;;;;;;93.80;13.80;;;5.60;99.90;;;;;;4915159;29;20040;-67
2021/10/27 08:19:10;;;;;;;29.92;10.50;;;5.70;99.90;;;;;;4912262;29;20028;-68
2021/10/27 08:21:36;;;;;;;64.60;12.02;;;5.80;99.90;;;;;;4911261;29;20083;-67
2021/10/27 08:24:02;;;;;;;21.08;9.60;;;5.80;99.90;;;;;;4912312;29;20147;-68
2021/10/27 08:26:29;;;;;;;65.53;12.63;;;5.90;99.90;;;;;;4914005;29;20024;-67
2021/10/27 08:36:24;;;;;;;;;;;6.00;99.90;;;;;;4912516;29;20040;-67
2021/10/27 08:38:50;;;;;;;56.63;13.43;;;6.00;99.90;;;;;;4915760;29;19915;-67
2021/10/27 08:41:16;;;;;;;58.30;11.52;;;6.00;99.90;;;;;;4913522;29;20040;-67
2021/10/27 08:43:42;;;;;;;36.17;10.50;;;6.00;99.90;;;;;;4904367;29;20374;-67
2021/10/27 08:46:11;;;;;;;167.40;20.85;;;6.00;99.90;;;;;;4914442;29;20082;-67
2021/10/27 08:48:38;;;;;;;47.45;11.43;;;6.10;99.90;;;;;;4912103;29;20035;-67
2021/10/27 08:51:08;;;;;;;58.78;10.50;;;6.10;99.90;;;;;;4911593;29;20043;-67
2021/10/27 08:53:35;;;;;;;66.32;11.95;;;6.10;99.90;;;;;;4912488;29;20055;-67
2021/10/27 08:56:04;;;;;;;91.68;14.70;;;6.20;99.90;;;;;;4912462;29;20032;-67
2021/10/27 08:58:36;;;;;;;68.82;14.85;;;6.30;99.90;;;;;;4911859;29;20047;-67
2021/10/27 09:01:14;;;;;;;150.52;16.92;;;6.30;99.90;;;;;;4924141;29;20047;-67
2021/10/27 10:06:49;;;;;;;79.32;17.20;;;7.40;99.90;;;;;;4912829;29;20078;-67
2021/10/27 10:09:18;;;;;;;60.53;16.80;;;7.40;99.90;;;;;;4916408;29;20401;-67
2021/10/27 10:11:45;;;;;;;55.63;16.40;;;7.50;99.90;;;;;;4929215;29;20062;-67
2021/10/27 10:14:12;;;;;;;56.35;20.33;;;7.50;99.90;;;;;;4912596;29;20056;-67
2021/10/27 10:16:46;;;;;;;47.78;17.10;;;7.50;99.90;;;;;;4908022;29;20052;-67
2021/10/27 10:19:17;;;;;;;67.53;16.55;;;7.60;99.90;;;;;;4912433;29;20047;-68
2021/10/27 10:21:48;;;;;;;78.05;21.60;;;7.60;99.90;;;;;;4912385;29;20151;-67
2021/10/27 10:24:14;;;;;;;103.53;18.50;;;7.60;99.90;;;;;;4913917;29;20032;-67
2021/10/27 10:26:42;;;;;;;51.50;17.25;;;7.60;99.90;;;;;;4903940;29;20035;-67
2021/10/27 10:29:08;;;;;;;57.17;17.55;;;7.60;99.90;;;;;;4906255;29;20028;-67
2021/10/27 10:31:36;;;;;;;68.82;18.65;;;7.70;99.90;;;;;;4910718;29;20040;-67
2021/10/27 10:34:09;;;;;;;66.28;18.45;;;7.70;99.90;;;;;;4916000;29;20020;-67
2021/10/27 10:36:40;;;;;;;54.85;19.38;;;7.70;99.90;;;;;;4911811;29;20083;-67
2021/10/27 10:39:37;;;;;;;83.32;19.25;;;7.80;99.90;;;;;;4903258;29;20024;-67
2021/10/27 10:42:20;;;;;;;60.33;17.80;;;7.80;99.90;;;;;;4896832;29;20068;-67
2021/10/27 11:24:46;;;;;;;40.13;19.88;;;8.40;99.90;;;;;;5067357;28;20066;-66
2021/10/27 11:27:28;;;;;;;44.45;20.30;;;8.50;99.90;;;;;;5058598;28;20107;-67
2021/10/27 11:41:09;;;;;;;35.00;16.88;;;8.70;99.90;;;;;;5086097;28;20062;-67
2021/10/27 11:43:55;;;;;;;32.47;16.40;;;8.70;99.90;;;;;;5081781;28;20102;-67
2021/10/27 11:46:28;;;;;;;34.40;17.27;;;8.80;99.90;;;;;;5072708;28;20387;-67
2021/10/27 11:49:09;;;;;;;33.92;14.13;;;8.70;99.90;;;;;;5083882;28;20478;-67
2021/10/27 11:51:35;;;;;;;35.03;15.75;;;8.70;99.90;;;;;;5078772;28;20027;-67
2021/10/27 11:54:11;;;;;;;38.35;18.02;;;8.60;99.90;;;;;;5083227;28;20032;-67
2021/10/27 11:56:37;;;;;;;36.10;16.75;;;8.80;99.90;;;;;;5065443;28;20028;-67
2021/10/27 11:59:04;;;;;;;32.10;16.23;;;9.00;99.90;;;;;;5065225;28;20016;-67
2021/10/27 12:01:36;;;;;;;33.25;16.15;;;9.10;99.90;;;;;;5068409;28;20037;-67
2021/10/27 12:04:12;;;;;;;32.47;16.02;;;9.10;99.90;;;;;;5048906;28;20033;-67
2021/10/27 12:13:16;;;;;;;33.50;16.20;;;9.10;99.90;;;;;;5063934;28;20041;-67
2021/10/27 12:18:11;;;;;;;30.77;15.02;;;9.20;99.90;;;;;;5050550;28;20098;-67
2021/10/27 12:20:55;;;;;;;35.72;14.70;;;9.20;99.90;;;;;;5064018;28;20032;-67
2021/10/27 12:23:24;;;;;;;43.28;18.55;;;9.20;99.90;;;;;;5064818;28;20028;-67
2021/10/27 12:25:52;;;;;;;42.42;18.73;;;9.30;99.90;;;;;;5057880;28;20052;-67
2021/10/27 12:28:23;;;;;;;;;;;9.20;99.90;;;;;;5044559;28;20116;-67
2021/10/27 12:30:48;;;;;;;38.95;17.65;;;9.20;99.90;;;;;;5049430;28;19955;-67
2021/10/27 12:33:14;;;;;;;41.20;17.58;;;9.30;99.90;;;;;;5048383;28;20029;-67
2021/10/27 12:35:40;;;;;;;37.80;17.40;;;9.30;99.90;;;;;;5048636;28;20033;-67
2021/10/27 12:38:17;;;;;;;31.80;16.20;;;9.30;99.90;;;;;;5045618;28;20036;-67
2021/10/27 12:40:45;;;;;;;32.85;16.55;;;9.40;99.90;;;;;;5049878;28;20517;-67
2021/10/27 12:43:13;;;;;;;32.58;14.98;;;9.50;99.90;;;;;;5049102;28;20024;-67
2021/10/27 12:45:44;;;;;;;32.70;17.33;;;9.50;99.90;;;;;;5048445;28;20040;-67
2021/10/27 12:48:17;;;;;;;32.97;16.25;;;9.60;99.90;;;;;;5044921;28;20029;-67
2021/10/27 12:51:01;;;;;;;32.35;16.23;;;9.60;99.90;;;;;;5038802;28;20017;-67
2021/10/27 12:53:34;;;;;;;29.10;14.88;;;9.80;99.90;;;;;;5051609;28;20021;-67
2021/10/27 12:56:13;;;;;;;28.88;14.95;;;9.80;99.90;;;;;;5043286;28;20037;-67
2021/10/27 12:58:46;;;;;;;28.77;15.02;;;9.80;99.90;;;;;;5038076;28;20052;-67
2021/10/27 13:01:16;;;;;;;32.17;15.52;;;9.80;99.90;;;;;;5041499;28;20025;-67
2021/10/27 13:04:07;;;;;;;30.80;15.82;;;9.90;99.90;;;;;;5037819;28;21603;-67
2021/10/27 13:12:54;;;;;;;31.98;16.35;;;10.00;99.90;;;;;;5051624;28;20074;-67
2021/10/27 13:30:32;;;;;;;29.50;14.57;;;10.40;99.90;;;;;;5042401;28;20501;-67
2021/10/27 13:33:01;;;;;;;33.15;15.77;;;10.40;99.90;;;;;;5049367;28;20116;-67
2021/10/27 13:35:27;;;;;;;;;;;10.40;99.90;;;;;;5047188;28;20025;-67
2021/10/27 13:37:53;;;;;;;31.65;16.35;;;10.50;99.90;;;;;;5050138;28;20289;-67
2021/10/27 13:40:19;;;;;;;35.30;16.42;;;10.70;99.90;;;;;;5044126;28;20033;-67
2021/10/27 13:43:06;;;;;;;28.48;14.32;;;10.70;99.90;;;;;;5049881;28;20096;-67
2021/10/27 13:45:41;;;;;;;29.35;15.60;;;10.80;99.90;;;;;;5044731;28;20052;-67
2021/10/27 13:59:13;;;;;;;31.05;15.43;;;11.10;99.90;;;;;;5047753;28;20508;-67
2021/10/27 14:07:16;;;;;;;33.10;16.63;;;11.30;99.90;;;;;;5065066;28;20097;-67
2021/10/27 14:09:48;;;;;;;32.45;16.70;;;11.30;99.90;;;;;;5043313;28;20029;-67
2021/10/27 14:47:13;;;;;;;29.17;15.18;;;11.90;96.20;;;;;;5038846;28;20030;-67
2021/10/27 15:43:25;;;;;;;26.83;13.40;;;10.30;99.90;;;;;;5047898;28;20397;-67
2021/10/27 15:51:21;;;;;;;29.88;13.90;;;10.00;99.90;;;;;;5041556;28;20083;-67
2021/10/27 15:53:47;;;;;;;28.48;14.77;;;9.90;99.90;;;;;;5040605;28;20021;-67
2021/10/27 15:56:12;;;;;;;29.67;14.18;;;9.80;99.90;;;;;;5043969;28;20136;-67
2021/10/27 15:58:38;;;;;;;27.02;14.40;;;9.70;99.90;;;;;;5047998;28;20495;-67
2021/10/27 16:01:04;;;;;;;24.80;14.70;;;9.60;99.90;;;;;;5040046;28;20040;-67
2021/10/27 16:03:30;;;;;;;25.98;12.95;;;9.50;99.90;;;;;;5053014;28;20047;-67
2021/10/27 16:05:57;;;;;;;25.10;12.88;;;9.50;99.90;;;;;;5052017;28;20021;-67
2021/10/27 16:08:26;;;;;;;26.77;14.23;;;9.50;99.90;;;;;;5046401;28;20025;-67
2021/10/27 16:10:52;;;;;;;23.08;12.82;;;9.40;99.90;;;;;;5051534;28;20025;-67
2021/10/27 16:13:18;;;;;;;26.20;13.88;;;9.30;99.90;;;;;;5050780;28;20086;-67
2021/10/27 16:15:57;;;;;;;30.45;14.55;;;9.20;99.90;;;;;;5050894;28;20116;-67
2021/10/27 16:18:28;;;;;;;25.58;13.02;;;9.10;99.90;;;;;;5045109;28;20367;-67
2021/10/27 16:20:54;;;;;;;23.35;12.93;;;9.00;99.90;;;;;;5047049;28;20390;-67
2021/10/27 16:23:20;;;;;;;26.17;14.05;;;8.90;99.90;;;;;;5044520;28;20499;-67
2021/10/27 16:25:48;;;;;;;22.85;12.02;;;8.80;99.90;;;;;;5048651;28;20063;-67
2021/10/27 16:28:13;;;;;;;25.85;14.48;;;8.60;99.90;;;;;;5048372;28;20123;-67
2021/10/27 16:30:40;;;;;;;30.95;15.30;;;8.40;99.90;;;;;;5050328;28;20100;-67
2021/10/27 16:33:05;;;;;;;75.78;19.67;;;8.30;99.90;;;;;;5045740;28;20095;-67
2021/10/27 16:35:34;;;;;;;49.85;18.08;;;8.30;99.90;;;;;;5051735;28;20029;-67
2021/10/27 16:38:00;;;;;;;50.95;17.42;;;8.30;99.90;;;;;;5050452;28;20071;-67
2021/10/27 16:40:26;;;;;;;62.03;19.02;;;8.40;99.90;;;;;;5043127;28;20028;-67
2021/10/27 16:42:52;;;;;;;112.90;23.00;;;8.40;99.90;;;;;;5050094;28;20044;-67
2021/10/27 16:45:18;;;;;;;66.25;20.77;;;8.40;99.90;;;;;;5051134;28;20055;-67
2021/10/27 16:47:44;;;;;;;86.13;20.17;;;8.40;99.90;;;;;;5041318;28;20025;-67
2021/10/27 16:50:12;;;;;;;45.30;17.27;;;8.40;99.90;;;;;;5040709;28;20039;-67
2021/10/27 16:52:38;;;;;;;64.45;20.67;;;8.60;99.90;;;;;;5047084;28;20061;-67
2021/10/27 16:55:07;;;;;;;57.60;20.60;;;8.50;99.90;;;;;;5048783;28;20031;-67
2021/10/27 16:57:36;;;;;;;47.10;18.67;;;8.60;99.90;;;;;;5050549;28;20032;-67
2021/10/27 17:00:06;;;;;;;71.95;19.17;;;8.60;99.90;;;;;;5049277;28;20021;-67
2021/10/27 17:02:32;;;;;;;59.13;20.90;;;8.60;99.90;;;;;;5051529;28;20108;-67
2021/10/27 17:04:58;;;;;;;52.42;19.63;;;8.60;99.90;;;;;;5055588;28;20024;-67
2021/10/27 17:07:23;;;;;;;49.58;19.33;;;8.60;99.90;;;;;;5061416;28;20422;-67
2021/10/27 17:09:49;;;;;;;42.15;19.00;;;8.60;99.90;;;;;;5044764;28;22838;-68
2021/10/27 17:12:15;;;;;;;47.67;19.27;;;8.60;99.90;;;;;;5034634;28;20040;-68
2021/10/27 17:14:42;;;;;;;54.25;20.08;;;8.60;99.90;;;;;;5044467;28;20088;-67
2021/10/27 17:17:08;;;;;;;45.60;18.92;;;8.60;99.90;;;;;;5044252;28;20021;-67
2021/10/27 17:19:34;;;;;;;48.97;20.65;;;8.60;99.90;;;;;;5036220;28;20017;-67
2021/10/27 17:21:59;;;;;;;50.83;20.67;;;8.60;99.90;;;;;;5049958;28;20023;-67
2021/10/27 17:24:27;;;;;;;41.88;20.42;;;8.70;99.90;;;;;;5051861;28;20025;-67
2021/10/27 17:26:57;;;;;;;45.38;19.73;;;8.70;99.90;;;;;;5042783;28;20021;-67
2021/10/27 17:29:22;;;;;;;43.08;19.63;;;8.70;99.90;;;;;;5043479;28;20040;-67
2021/10/27 17:31:48;;;;;;;47.40;20.60;;;8.70;99.90;;;;;;5046736;28;20050;-67
2021/10/27 17:34:14;;;;;;;47.83;20.00;;;8.70;99.90;;;;;;5044276;28;20116;-67
2021/10/27 17:36:40;;;;;;;49.40;20.75;;;8.80;99.90;;;;;;5045504;28;20486;-66
2021/10/27 17:39:06;;;;;;;55.40;20.30;;;8.80;99.90;;;;;;5041696;28;20025;-66
2021/10/27 17:41:33;;;;;;;42.83;20.30;;;8.80;99.90;;;;;;5043589;28;20036;-66
2021/10/27 17:43:59;;;;;;;46.50;19.33;;;8.80;99.90;;;;;;5038659;28;20121;-67
2021/10/27 17:46:37;;;;;;;50.40;21.70;;;8.80;99.90;;;;;;5049439;28;20533;-67
2021/10/27 17:49:03;;;;;;;42.58;18.25;;;8.80;99.90;;;;;;5045240;28;20029;-67